createdAt,value
2023-05-24T00:00:24.330Z,91217.19
2023-05-24T00:02:51.146Z,91214.63
2023-05-24T00:05:18.988Z,91210.09
2023-05-24T00:07:45.796Z,91211.53
2023-05-24T00:10:12.727Z,91198.78
2023-05-24T00:12:39.455Z,91210.56
2023-05-24T00:15:06.728Z,91200.47
2023-05-24T00:17:34.934Z,91201.66
2023-05-24T00:20:01.900Z,91206.91
2023-05-24T00:22:28.630Z,91200.06
2023-05-24T00:24:55.513Z,91198.59
2023-05-24T00:27:22.292Z,91205.28
2023-05-24T00:29:49.073Z,91199.31
2023-05-24T00:32:15.810Z,91200.06
2023-05-24T00:34:43.584Z,91202.41
2023-05-24T00:37:10.265Z,91202.38
2023-05-24T00:39:37.093Z,91198.22
2023-05-24T00:42:04.061Z,91193.28
2023-05-24T00:44:31.709Z,91189.50
2023-05-24T00:46:58.985Z,91187.28
2023-05-24T00:49:26.511Z,91189.59
2023-05-24T00:51:54.458Z,91195.63
2023-05-24T00:54:21.565Z,91194.88
2023-05-24T00:56:49.472Z,91194.66
2023-05-24T00:59:16.352Z,91196.94
2023-05-24T01:01:43.186Z,91195.31
2023-05-24T01:04:09.902Z,91185.19
2023-05-24T01:06:51.781Z,91190.78
2023-05-24T01:09:38.549Z,91191.94
2023-05-24T01:12:15.471Z,91194.59
2023-05-24T01:15:06.730Z,91194.16
2023-05-24T01:17:42.706Z,91197.25
2023-05-24T01:20:15.088Z,91190.84
2023-05-24T01:23:12.643Z,91189.34
2023-05-24T01:25:42.994Z,91188.22
2023-05-24T01:28:11.837Z,91188.69
2023-05-24T01:30:42.327Z,91185.94
2023-05-24T01:33:09.390Z,91180.31
2023-05-24T01:35:40.373Z,91179.50
2023-05-24T01:38:07.694Z,91172.03
2023-05-24T01:40:34.662Z,91185.16
2023-05-24T01:43:20.187Z,91192.16
2023-05-24T01:45:58.877Z,91179.75
2023-05-24T01:48:34.745Z,91191.38
2023-05-24T01:51:07.097Z,91191.41
2023-05-24T01:53:36.083Z,91177.13
2023-05-24T01:56:06.248Z,91188.56
2023-05-24T01:58:34.631Z,91183.34
2023-05-24T02:01:02.690Z,91177.63
2023-05-24T02:03:29.645Z,91182.53
2023-05-24T02:05:56.410Z,91174.69
2023-05-24T02:08:23.413Z,91179.19
2023-05-24T02:10:50.226Z,91176.53
2023-05-24T02:13:18.329Z,91188.03
2023-05-24T02:15:45.172Z,91177.94
2023-05-24T02:18:13.136Z,91178.38
2023-05-24T02:20:40.746Z,91173.50
2023-05-24T02:23:07.887Z,91179.16
2023-05-24T02:25:34.614Z,91179.88
2023-05-24T02:28:01.474Z,91187.59
2023-05-24T02:30:28.332Z,91185.16
2023-05-24T02:32:56.262Z,91188.03
2023-05-24T02:35:22.980Z,91192.81
2023-05-24T02:37:49.758Z,91186.41
2023-05-24T02:40:16.520Z,91177.44
2023-05-24T02:42:44.235Z,91187.63
2023-05-24T02:45:11.353Z,91193.31
2023-05-24T02:47:38.036Z,91191.78
2023-05-24T02:50:06.335Z,91191.41
2023-05-24T02:52:33.164Z,91192.03
2023-05-24T02:55:00.027Z,91186.56
2023-05-24T02:57:28.788Z,91185.50
2023-05-24T02:59:56.112Z,91195.97
2023-05-24T03:02:22.866Z,91197.47
2023-05-24T03:04:49.544Z,91207.13
2023-05-24T03:07:16.333Z,91203.81
2023-05-24T03:09:43.291Z,91204.31
2023-05-24T03:12:10.031Z,91206.06
2023-05-24T03:14:36.807Z,91209.03
2023-05-24T03:17:03.666Z,91209.56
2023-05-24T03:19:30.616Z,91207.72
2023-05-24T03:21:57.494Z,91218.31
2023-05-24T03:24:24.186Z,91218.38
2023-05-24T03:26:51.024Z,91211.34
2023-05-24T03:29:17.978Z,91215.84
2023-05-24T03:31:44.825Z,91222.34
2023-05-24T03:34:11.581Z,91220.59
2023-05-24T03:36:38.248Z,91223.19
2023-05-24T03:39:04.968Z,91227.31
2023-05-24T03:41:31.848Z,91221.59
2023-05-24T03:43:58.582Z,91229.13
2023-05-24T03:46:25.435Z,91229.84
2023-05-24T03:48:52.235Z,91236.97
2023-05-24T03:51:19.154Z,91226.84
2023-05-24T03:53:45.853Z,91237.81
2023-05-24T03:56:12.542Z,91238.88
2023-05-24T03:58:39.226Z,91229.91
2023-05-24T04:01:06.874Z,91239.56
2023-05-24T04:03:34.295Z,91236.00
2023-05-24T04:06:01.149Z,91226.81
2023-05-24T04:08:28.367Z,91233.94
2023-05-24T04:10:55.023Z,91230.75
2023-05-24T04:13:22.544Z,91224.06
2023-05-24T04:15:49.261Z,91233.53
2023-05-24T04:18:16.057Z,91231.03
2023-05-24T04:20:43.012Z,91228.13
2023-05-24T04:23:09.879Z,91214.94
2023-05-24T04:25:36.632Z,91231.97
2023-05-24T04:28:04.033Z,91228.69
2023-05-24T04:30:31.002Z,91229.16
2023-05-24T04:32:58.155Z,91235.97
2023-05-24T04:35:27.945Z,91228.91
2023-05-24T04:37:54.607Z,91228.69
2023-05-24T04:40:21.337Z,91232.09
2023-05-24T04:42:48.124Z,91234.88
2023-05-24T04:45:14.885Z,91236.44
2023-05-24T04:47:42.266Z,91247.34
2023-05-24T04:50:09.305Z,91242.94
2023-05-24T04:52:37.159Z,91248.00
2023-05-24T04:55:04.425Z,91244.50
2023-05-24T04:57:31.230Z,91241.09
2023-05-24T04:59:57.905Z,91241.13
2023-05-24T05:02:26.607Z,91232.56
2023-05-24T05:04:57.822Z,91233.88
2023-05-24T05:07:24.472Z,91240.94
2023-05-24T05:09:51.365Z,91238.16
2023-05-24T05:12:18.094Z,91233.59
2023-05-24T05:17:11.330Z,91241.47
2023-05-24T05:19:38.061Z,91243.41
2023-05-24T05:22:04.996Z,91236.91
2023-05-24T05:24:31.692Z,91237.88
2023-05-24T05:26:58.502Z,91243.19
2023-05-24T05:29:25.209Z,91244.72
2023-05-24T05:31:52.057Z,91239.22
2023-05-24T05:34:19.756Z,91248.00
2023-05-24T05:36:46.952Z,91231.81
2023-05-24T05:39:14.124Z,91244.53
2023-05-24T05:41:46.011Z,91235.28
2023-05-24T05:44:13.608Z,91238.97
2023-05-24T05:46:43.911Z,91239.47
2023-05-24T05:49:11.527Z,91239.44
2023-05-24T05:51:38.920Z,91241.00
2023-05-24T05:54:06.255Z,91233.03
2023-05-24T05:56:33.188Z,91237.44
2023-05-24T05:58:59.945Z,91227.78
2023-05-24T06:01:26.671Z,91229.25
2023-05-24T06:03:53.486Z,91228.47
2023-05-24T06:06:20.254Z,91230.84
2023-05-24T06:08:46.994Z,91222.06
2023-05-24T06:11:13.761Z,91221.03
2023-05-24T06:13:40.516Z,91221.56
2023-05-24T06:16:08.927Z,91227.03
2023-05-24T06:18:36.717Z,91228.59
2023-05-24T06:21:03.890Z,91225.97
2023-05-24T06:23:30.827Z,91235.13
2023-05-24T06:25:57.603Z,91232.59
2023-05-24T06:28:24.356Z,91229.75
2023-05-24T06:30:51.231Z,91225.28
2023-05-24T06:33:18.071Z,91230.16
2023-05-24T06:35:44.771Z,91239.50
2023-05-24T06:38:11.865Z,91237.06
2023-05-24T06:40:38.753Z,91238.53
2023-05-24T06:43:05.530Z,91238.31
2023-05-24T06:45:32.333Z,91232.66
2023-05-24T06:47:59.174Z,91231.00
2023-05-24T06:50:26.100Z,91238.06
2023-05-24T06:52:53.034Z,91236.81
2023-05-24T06:55:20.360Z,91219.44
2023-05-24T06:57:47.152Z,91229.16
2023-05-24T07:00:14.888Z,91225.66
2023-05-24T07:02:42.158Z,91218.81
2023-05-24T07:05:13.029Z,91217.31
2023-05-24T07:07:40.743Z,91231.50
2023-05-24T07:10:08.337Z,91216.19
2023-05-24T07:12:35.212Z,91213.47
2023-05-24T07:15:01.981Z,91206.47
2023-05-24T07:17:28.736Z,91214.25
2023-05-24T07:19:55.554Z,91217.75
2023-05-24T07:22:22.919Z,91207.63
2023-05-24T07:24:49.694Z,91211.53
2023-05-24T07:27:16.485Z,91210.84
2023-05-24T07:29:43.201Z,91208.38
2023-05-24T07:32:10.018Z,91209.75
2023-05-24T07:34:36.715Z,91208.06
2023-05-24T07:37:03.492Z,91207.22
2023-05-24T07:39:30.776Z,91210.28
2023-05-24T07:41:57.505Z,91204.13
2023-05-24T07:44:24.369Z,91211.50
2023-05-24T07:46:51.430Z,91219.72
2023-05-24T07:49:18.272Z,91222.84
2023-05-24T07:51:45.520Z,91221.78
2023-05-24T07:54:12.375Z,91214.31
2023-05-24T07:56:39.070Z,91214.78
2023-05-24T07:59:05.755Z,91214.09
2023-05-24T08:01:34.523Z,91207.44
2023-05-24T08:04:04.211Z,91211.09
2023-05-24T08:06:32.838Z,91212.09
2023-05-24T08:08:59.639Z,91223.91
2023-05-24T08:11:26.663Z,91214.94
2023-05-24T08:13:53.439Z,91212.56
2023-05-24T08:16:20.194Z,91217.25
2023-05-24T08:18:46.980Z,91224.66
2023-05-24T08:21:13.769Z,91225.47
2023-05-24T08:23:40.801Z,91220.91
2023-05-24T08:26:07.489Z,91225.47
2023-05-24T08:28:34.461Z,91220.63
2023-05-24T08:31:01.726Z,91223.28
2023-05-24T08:33:29.851Z,91220.19
2023-05-24T08:35:56.556Z,91227.25
2023-05-24T08:38:23.260Z,91227.31
2023-05-24T08:40:50.107Z,91225.69
2023-05-24T08:43:17.225Z,91225.97
2023-05-24T08:45:45.715Z,91228.41
2023-05-24T08:48:14.015Z,91237.63
2023-05-24T08:50:42.418Z,91230.34
2023-05-24T08:53:09.893Z,91221.34
2023-05-24T08:55:38.209Z,91243.13
2023-05-24T08:58:05.608Z,91241.47
2023-05-24T09:00:32.386Z,91237.22
2023-05-24T09:02:59.458Z,91238.75
2023-05-24T09:05:26.432Z,91213.41
2023-05-24T09:07:55.948Z,91241.34
2023-05-24T09:10:24.212Z,91238.72
2023-05-24T09:12:57.725Z,91244.53
2023-05-24T09:15:24.860Z,91245.56
2023-05-24T09:17:51.691Z,91249.94
2023-05-24T09:20:18.839Z,91246.53
2023-05-24T09:22:50.839Z,91250.09
2023-05-24T09:25:19.187Z,91249.38
2023-05-24T09:27:53.617Z,91245.47
2023-05-24T09:30:21.751Z,91253.22
2023-05-24T09:32:58.832Z,91246.25
2023-05-24T09:35:29.290Z,91249.72
2023-05-24T09:38:02.551Z,91245.03
2023-05-24T09:40:30.240Z,91247.63
2023-05-24T09:43:26.261Z,91255.28
2023-05-24T09:45:55.884Z,91248.53
2023-05-24T09:48:22.564Z,91260.34
2023-05-24T09:51:09.741Z,91264.72
2023-05-24T09:53:37.166Z,91251.03
2023-05-24T09:56:06.026Z,91259.50
2023-05-24T09:58:33.709Z,91262.34
2023-05-24T10:01:18.871Z,91251.97
2023-05-24T10:03:55.881Z,91255.97
2023-05-24T10:06:24.083Z,91261.78
2023-05-24T10:08:52.315Z,91259.56
2023-05-24T10:11:19.302Z,91248.91
2023-05-24T10:13:47.626Z,91244.53
2023-05-24T10:16:14.614Z,91250.44
2023-05-24T10:18:42.540Z,91253.91
2023-05-24T10:21:11.237Z,91244.72
2023-05-24T10:23:39.398Z,91251.00
2023-05-24T10:26:09.929Z,91249.53
2023-05-24T10:28:43.282Z,91251.22
2023-05-24T10:31:16.115Z,91255.88
2023-05-24T10:33:45.175Z,91245.94
2023-05-24T10:36:14.416Z,91254.13
2023-05-24T10:38:41.326Z,91253.69
2023-05-24T10:41:08.684Z,91244.69
2023-05-24T10:43:36.683Z,91245.56
2023-05-24T10:46:04.962Z,91246.50
2023-05-24T10:48:32.725Z,91235.94
2023-05-24T10:51:02.098Z,91235.59
2023-05-24T10:53:28.906Z,91234.88
2023-05-24T10:55:59.782Z,91226.28
2023-05-24T10:58:33.272Z,91227.81
2023-05-24T11:01:00.030Z,91220.00
2023-05-24T11:03:33.115Z,91223.38
2023-05-24T11:06:00.366Z,91224.50
2023-05-24T11:08:33.339Z,91219.31
2023-05-24T11:11:22.051Z,91217.50
2023-05-24T11:13:56.132Z,91221.84
2023-05-24T11:16:41.351Z,91231.78
2023-05-24T11:19:29.102Z,91229.25
2023-05-24T11:22:00.710Z,91230.88
2023-05-24T11:24:29.215Z,91222.28
2023-05-24T11:26:57.171Z,91218.53
2023-05-24T11:29:24.378Z,91223.31
2023-05-24T11:31:57.907Z,91214.69
2023-05-24T11:34:27.511Z,91209.44
2023-05-24T11:36:55.557Z,91199.34
2023-05-24T11:39:23.711Z,91202.63
2023-05-24T11:41:50.755Z,91197.34
2023-05-24T11:44:21.572Z,91189.66
2023-05-24T11:46:48.379Z,91200.81
2023-05-24T11:49:17.915Z,91195.31
2023-05-24T11:51:44.835Z,91197.06
2023-05-24T11:54:12.028Z,91195.59
2023-05-24T11:56:38.918Z,91206.22
2023-05-24T11:59:16.946Z,91198.53
2023-05-24T12:01:44.582Z,91203.75
2023-05-24T12:04:11.960Z,91194.84
2023-05-24T12:06:44.609Z,91193.09
2023-05-24T12:09:16.672Z,91197.66
2023-05-24T12:11:48.278Z,91196.31
2023-05-24T12:14:22.980Z,91199.38
2023-05-24T12:16:58.466Z,91191.03
2023-05-24T12:19:33.658Z,91185.69
2023-05-24T12:22:04.952Z,91185.31
2023-05-24T12:24:33.994Z,91184.81
2023-05-24T12:27:02.786Z,91169.47
2023-05-24T12:29:42.400Z,91175.66
2023-05-24T12:32:13.649Z,91169.69
2023-05-24T12:34:45.244Z,91163.22
2023-05-24T12:37:13.603Z,91151.78
2023-05-24T12:39:42.748Z,91156.00
2023-05-24T12:42:12.302Z,91153.66
2023-05-24T12:44:39.620Z,91157.22
2023-05-24T12:47:08.509Z,91153.91
2023-05-24T12:49:36.275Z,91145.44
2023-05-24T12:52:03.108Z,91144.47
2023-05-24T12:54:30.127Z,91146.38
2023-05-24T12:56:59.822Z,91149.34
2023-05-24T12:59:28.399Z,91142.66
2023-05-24T13:01:55.459Z,91144.13
2023-05-24T13:04:23.443Z,91144.28
2023-05-24T13:06:50.175Z,91131.28
2023-05-24T13:09:21.710Z,91129.66
2023-05-24T13:11:49.311Z,91124.53
2023-05-24T13:14:16.978Z,91127.34
2023-05-24T13:16:44.521Z,91120.25
2023-05-24T13:19:12.037Z,91129.88
2023-05-24T13:21:39.310Z,91129.25
2023-05-24T13:24:06.976Z,91124.25
2023-05-24T13:26:37.684Z,91131.22
2023-05-24T13:31:37.631Z,91133.28
2023-05-24T13:34:05.328Z,91119.16
2023-05-24T13:36:32.576Z,91128.84
2023-05-24T13:41:30.981Z,91133.56
2023-05-24T13:43:57.754Z,91136.09
2023-05-24T13:46:24.521Z,91131.34
2023-05-24T13:48:51.578Z,91140.56
2023-05-24T13:51:19.768Z,91145.00
2023-05-24T13:53:47.849Z,91145.00
2023-05-24T13:56:15.920Z,91147.72
2023-05-24T13:58:42.963Z,91149.16
2023-05-24T14:01:10.455Z,91147.09
2023-05-24T14:03:37.253Z,91151.44
2023-05-24T14:06:04.136Z,91144.88
2023-05-24T14:08:30.994Z,91156.00
2023-05-24T14:10:57.769Z,91149.94
2023-05-24T14:14:07.543Z,91154.19
2023-05-24T14:16:13.036Z,91151.75
2023-05-24T14:18:40.169Z,91155.31
2023-05-24T14:21:06.958Z,91153.97
2023-05-24T14:23:33.725Z,91142.00
2023-05-24T14:26:01.032Z,91150.88
2023-05-24T14:28:27.787Z,91143.69
2023-05-24T14:30:54.471Z,91146.94
2023-05-24T14:33:21.194Z,91147.97
2023-05-24T14:35:48.281Z,91153.44
2023-05-24T14:38:15.099Z,91152.03
2023-05-24T14:40:42.440Z,91148.75
2023-05-24T14:43:10.985Z,91145.31
2023-05-24T14:45:42.175Z,91149.31
2023-05-24T14:48:13.031Z,91147.06
2023-05-24T14:50:41.075Z,91158.38
2023-05-24T14:53:14.089Z,91155.97
2023-05-24T14:55:43.108Z,91161.53
2023-05-24T14:58:13.774Z,91164.31
2023-05-24T15:00:42.118Z,91161.13
2023-05-24T15:03:12.780Z,91155.63
2023-05-24T15:05:40.033Z,91149.34
2023-05-24T15:08:07.934Z,91159.03
2023-05-24T15:10:34.785Z,91166.47
2023-05-24T15:13:03.909Z,91169.88
2023-05-24T15:15:30.838Z,91176.34
2023-05-24T15:17:59.646Z,91172.22
2023-05-24T15:20:26.725Z,91178.09
2023-05-24T15:22:53.605Z,91166.38
2023-05-24T15:25:20.804Z,91172.13
2023-05-24T15:27:47.745Z,91172.25
2023-05-24T15:30:14.660Z,91174.25
2023-05-24T15:32:41.502Z,91172.03
2023-05-24T15:35:08.760Z,91168.75
2023-05-24T15:37:35.574Z,91173.84
2023-05-24T15:40:02.320Z,91175.34
2023-05-24T15:42:30.628Z,91171.06
2023-05-24T15:44:57.342Z,91191.06
2023-05-24T15:47:29.120Z,91197.13
2023-05-24T15:49:57.236Z,91196.09
2023-05-24T15:52:24.206Z,91200.94
2023-05-24T15:54:50.892Z,91205.34
2023-05-24T15:57:17.771Z,91209.03
2023-05-24T15:59:44.616Z,91211.56
2023-05-24T16:02:11.466Z,91212.44
2023-05-24T16:04:39.259Z,91213.19
2023-05-24T16:07:06.691Z,91213.19
2023-05-24T16:09:33.466Z,91217.66
2023-05-24T16:12:01.303Z,91223.41
2023-05-24T16:14:28.268Z,91225.28
2023-05-24T16:16:57.965Z,91228.91
2023-05-24T16:19:25.873Z,91219.09
2023-05-24T16:21:52.521Z,91215.16
2023-05-24T16:24:20.306Z,91218.16
2023-05-24T16:26:47.058Z,91218.53
2023-05-24T16:29:18.052Z,91220.09
2023-05-24T16:31:44.839Z,91218.25
2023-05-24T16:34:11.773Z,91217.03
2023-05-24T16:36:38.511Z,91215.34
2023-05-24T16:39:05.287Z,91226.28
2023-05-24T16:41:37.613Z,91219.88
2023-05-24T16:44:04.889Z,91221.66
2023-05-24T16:46:31.964Z,91221.03
2023-05-24T16:49:00.340Z,91214.81
2023-05-24T16:51:27.120Z,91216.56
2023-05-24T16:53:53.809Z,91218.34
2023-05-24T16:56:20.590Z,91220.16
2023-05-24T16:58:47.266Z,91225.41
2023-05-24T17:01:13.946Z,91224.00
2023-05-24T17:03:40.829Z,91232.59
2023-05-24T17:06:07.711Z,91235.81
2023-05-24T17:08:38.174Z,91234.75
2023-05-24T17:11:06.087Z,91246.53
2023-05-24T17:13:33.389Z,91241.44
2023-05-24T17:16:00.634Z,91252.94
2023-05-24T17:18:28.420Z,91257.34
2023-05-24T17:21:02.530Z,91259.72
2023-05-24T17:23:34.042Z,91259.94
2023-05-24T17:26:02.819Z,91261.53
2023-05-24T17:28:31.586Z,91269.69
2023-05-24T17:31:00.900Z,91276.28
2023-05-24T17:33:29.743Z,91273.84
2023-05-24T17:35:56.995Z,91280.78
2023-05-24T17:38:28.560Z,91273.63
2023-05-24T17:40:59.680Z,91282.28
2023-05-24T17:43:32.745Z,91288.81
2023-05-24T17:46:06.804Z,91290.25
2023-05-24T17:48:38.077Z,91287.38
2023-05-24T17:51:06.869Z,91303.59
2023-05-24T17:53:35.366Z,91305.09
2023-05-24T17:56:03.143Z,91308.97
2023-05-24T17:58:36.636Z,91300.63
2023-05-24T18:01:05.491Z,91296.81
2023-05-24T18:03:33.656Z,91296.59
2023-05-24T18:06:01.202Z,91295.75
2023-05-24T18:08:28.081Z,91298.84
2023-05-24T18:10:55.973Z,91306.44
2023-05-24T18:13:22.885Z,91308.78
2023-05-24T18:15:50.699Z,91314.81
2023-05-24T18:18:17.741Z,91316.81
2023-05-24T18:20:44.611Z,91317.34
2023-05-24T18:23:11.792Z,91326.06
2023-05-24T18:25:38.605Z,91317.81
2023-05-24T18:28:05.374Z,91329.03
2023-05-24T18:30:32.182Z,91324.44
2023-05-24T18:33:06.317Z,91324.97
2023-05-24T18:35:35.131Z,91327.25
2023-05-24T18:38:01.941Z,91326.19
2023-05-24T18:40:28.640Z,91323.19
2023-05-24T18:42:55.438Z,91325.53
2023-05-24T18:45:22.924Z,91327.41
2023-05-24T18:47:49.648Z,91334.03
2023-05-24T18:50:16.419Z,91330.34
2023-05-24T18:52:44.193Z,91338.06
2023-05-24T18:55:11.008Z,91350.22
2023-05-24T18:57:38.224Z,91350.66
2023-05-24T19:00:07.435Z,91350.31
2023-05-24T19:02:40.983Z,91351.88
2023-05-24T19:05:08.309Z,91346.59
2023-05-24T19:07:36.003Z,91350.41
2023-05-24T19:10:03.380Z,91354.19
2023-05-24T19:12:30.486Z,91361.78
2023-05-24T19:14:57.410Z,91362.56
2023-05-24T19:17:25.263Z,91361.75
2023-05-24T19:19:52.290Z,91369.31
2023-05-24T19:22:19.137Z,91369.38
2023-05-24T19:24:46.079Z,91366.06
2023-05-24T19:27:13.298Z,91368.31
2023-05-24T19:29:40.227Z,91371.69
2023-05-24T19:32:07.635Z,91375.88
2023-05-24T19:34:35.419Z,91369.06
2023-05-24T19:37:02.144Z,91369.47
2023-05-24T19:39:28.919Z,91368.72
2023-05-24T19:41:55.792Z,91364.56
2023-05-24T19:44:22.475Z,91358.53
2023-05-24T19:46:49.176Z,91361.19
2023-05-24T19:49:15.880Z,91360.44
2023-05-24T19:51:42.538Z,91361.91
2023-05-24T19:54:09.387Z,91340.16
2023-05-24T19:56:36.293Z,91368.03
2023-05-24T19:59:03.199Z,91362.06
2023-05-24T20:01:31.064Z,91356.81
2023-05-24T20:03:57.982Z,91367.00
2023-05-24T20:06:24.829Z,91371.88
2023-05-24T20:08:52.600Z,91373.34
2023-05-24T20:11:19.398Z,91367.31
2023-05-24T20:13:46.122Z,91381.59
2023-05-24T20:16:13.315Z,91369.19
2023-05-24T20:18:40.139Z,91372.56
2023-05-24T20:21:07.079Z,91371.81
2023-05-24T20:23:34.370Z,91383.88
2023-05-24T20:26:02.134Z,91386.53
2023-05-24T20:28:31.810Z,91378.63
2023-05-24T20:30:59.234Z,91379.00
2023-05-24T20:33:26.242Z,91386.91
2023-05-24T20:35:54.120Z,91383.13
2023-05-24T20:38:23.312Z,91388.41
2023-05-24T20:40:50.081Z,91386.16
2023-05-24T20:43:17.018Z,91389.16
2023-05-24T20:45:43.927Z,91385.41
2023-05-24T20:48:11.231Z,91387.28
2023-05-24T20:50:37.926Z,91388.06
2023-05-24T20:53:05.335Z,91388.41
2023-05-24T20:55:32.547Z,91391.41
2023-05-24T20:57:59.276Z,91388.78
2023-05-24T21:00:26.374Z,91378.63
2023-05-24T21:02:53.210Z,91388.41
2023-05-24T21:05:20.067Z,91386.91
2023-05-24T21:07:47.799Z,91387.66
2023-05-24T21:10:18.688Z,91389.91
2023-05-24T21:12:46.762Z,91386.88
2023-05-24T21:15:13.554Z,91388.41
2023-05-24T21:17:40.257Z,91386.47
2023-05-24T21:20:07.611Z,91385.00
2023-05-24T21:22:34.377Z,91386.09
2023-05-24T21:25:01.062Z,91383.81
2023-05-24T21:27:28.076Z,91384.19
2023-05-24T21:29:54.858Z,91387.56
2023-05-24T21:32:21.648Z,91382.31
2023-05-24T21:34:49.864Z,91383.06
2023-05-24T21:37:17.583Z,91385.28
2023-05-24T21:39:44.405Z,91386.06
2023-05-24T21:42:11.271Z,91394.28
2023-05-24T21:44:38.149Z,91387.53
2023-05-24T21:47:05.251Z,91389.41
2023-05-24T21:49:32.004Z,91385.22
2023-05-24T21:51:59.326Z,91392.66
2023-05-24T21:54:26.426Z,91382.16
2023-05-24T21:56:53.447Z,91395.72
2023-05-24T21:59:21.482Z,91388.94
2023-05-24T22:01:48.862Z,91383.31
2023-05-24T22:04:15.812Z,91385.84
2023-05-24T22:06:44.858Z,91374.97
2023-05-24T22:09:13.682Z,91383.56
2023-05-24T22:11:43.071Z,91371.53
2023-05-24T22:14:11.017Z,91376.03
2023-05-24T22:16:37.798Z,91386.16
2023-05-24T22:19:14.991Z,91382.00
2023-05-24T22:21:43.541Z,91376.00
2023-05-24T22:24:10.515Z,91376.38
2023-05-24T22:26:37.586Z,91370.03
2023-05-24T22:29:04.981Z,91369.16
2023-05-24T22:31:33.780Z,91374.03
2023-05-24T22:34:04.009Z,91379.28
2023-05-24T22:36:33.376Z,91373.66
2023-05-24T22:39:01.149Z,91381.88
2023-05-24T22:41:28.804Z,91371.34
2023-05-24T22:43:56.998Z,91382.63
2023-05-24T22:46:24.374Z,91384.50
2023-05-24T22:48:52.646Z,91378.44
2023-05-24T22:51:22.737Z,91384.81
2023-05-24T22:53:49.559Z,91381.81
2023-05-24T22:56:18.018Z,91384.81
2023-05-24T22:58:45.935Z,91393.03
2023-05-24T23:01:12.686Z,91385.47
2023-05-24T23:03:39.754Z,91387.69
2023-05-24T23:06:07.725Z,91381.59
2023-05-24T23:08:34.504Z,91377.53
2023-05-24T23:11:01.320Z,91382.06
2023-05-24T23:13:28.084Z,91381.66
2023-05-24T23:15:58.660Z,91379.81
2023-05-24T23:18:26.657Z,91379.84
2023-05-24T23:20:56.663Z,91384.00
2023-05-24T23:23:24.945Z,91382.47
2023-05-24T23:25:52.086Z,91381.59
2023-05-24T23:28:19.911Z,91383.81
2023-05-24T23:30:46.704Z,91383.06
2023-05-24T23:33:13.515Z,91380.84
2023-05-24T23:35:40.255Z,91386.84
2023-05-24T23:38:07.011Z,91384.97
2023-05-24T23:40:34.717Z,91383.72
2023-05-24T23:43:01.924Z,91385.91
2023-05-24T23:45:28.758Z,91372.69
2023-05-24T23:47:55.619Z,91378.75
2023-05-24T23:50:23.172Z,91385.09
2023-05-24T23:52:50.689Z,91378.31
2023-05-24T23:55:18.517Z,91385.09
2023-05-24T23:57:45.992Z,91383.56
